createdAt,value
2019-05-28T00:00:21.781Z,89.87
2019-05-28T00:01:20.769Z,89.42
2019-05-28T00:02:20.764Z,89.46
2019-05-28T00:03:20.754Z,89.66
2019-05-28T00:04:20.741Z,89.56
2019-05-28T00:05:20.722Z,89.66
2019-05-28T00:06:20.710Z,89.66
2019-05-28T00:07:20.709Z,89.46
2019-05-28T00:08:20.730Z,89.46
2019-05-28T00:09:20.726Z,89.66
2019-05-28T00:10:33.439Z,89.31
2019-05-28T00:11:20.682Z,89.52
2019-05-28T00:12:20.646Z,89.62
2019-05-28T00:13:20.773Z,89.52
2019-05-28T00:14:20.834Z,89.42
2019-05-28T00:15:20.624Z,89.52
2019-05-28T00:16:20.605Z,89.42
2019-05-28T00:17:20.601Z,89.52
2019-05-28T00:18:20.606Z,89.83
2019-05-28T00:19:20.613Z,89.83
2019-05-28T00:20:20.587Z,89.93
2019-05-28T00:21:20.664Z,89.72
2019-05-28T00:22:20.534Z,89.83
2019-05-28T00:23:20.527Z,89.83
2019-05-28T00:24:20.524Z,89.83
2019-05-28T00:25:20.543Z,89.31
2019-05-28T00:26:20.495Z,89.21
2019-05-28T00:27:20.483Z,89.31
2019-05-28T00:28:20.470Z,89.62
2019-05-28T00:29:20.461Z,89.62
2019-05-28T00:30:21.137Z,89.21
2019-05-28T00:31:20.440Z,89.42
2019-05-28T00:32:20.425Z,89.72
2019-05-28T00:33:20.420Z,89.62
2019-05-28T00:34:20.407Z,89.21
2019-05-28T00:35:20.468Z,89.42
2019-05-28T00:36:20.413Z,89.42
2019-05-28T00:37:20.381Z,89.21
2019-05-28T00:38:20.364Z,89.17
2019-05-28T00:39:20.351Z,89.72
2019-05-28T00:40:20.337Z,89.69
2019-05-28T00:41:33.349Z,89.78
2019-05-28T00:42:20.313Z,89.93
2019-05-28T00:43:20.301Z,89.99
2019-05-28T00:44:20.296Z,89.78
2019-05-28T00:45:20.279Z,89.69
2019-05-28T00:46:20.274Z,89.83
2019-05-28T00:47:20.257Z,89.69
2019-05-28T00:48:20.250Z,89.48
2019-05-28T00:49:20.240Z,89.69
2019-05-28T00:50:20.228Z,89.62
2019-05-28T00:51:20.218Z,90.09
2019-05-28T00:52:20.349Z,89.99
2019-05-28T00:53:20.235Z,89.83
2019-05-28T00:54:20.180Z,90.14
2019-05-28T00:55:20.171Z,89.83
2019-05-28T00:56:20.151Z,89.78
2019-05-28T00:57:20.150Z,89.69
2019-05-28T00:58:20.139Z,90.20
2019-05-28T00:59:20.125Z,89.78
2019-05-28T01:00:36.196Z,89.78
2019-05-28T01:02:20.104Z,89.99
2019-05-28T01:03:20.080Z,90.05
2019-05-28T01:04:20.069Z,89.78
2019-05-28T01:05:20.055Z,89.89
2019-05-28T01:06:20.048Z,89.78
2019-05-28T01:07:20.034Z,90.05
2019-05-28T01:08:20.036Z,90.05
2019-05-28T01:09:20.016Z,89.54
2019-05-28T01:10:20.003Z,89.78
2019-05-28T01:11:19.985Z,89.69
2019-05-28T01:12:33.071Z,89.43
2019-05-28T01:13:19.971Z,89.48
2019-05-28T01:14:19.951Z,89.78
2019-05-28T01:15:19.949Z,89.78
2019-05-28T01:16:19.932Z,89.54
2019-05-28T01:17:19.934Z,89.75
2019-05-28T01:18:19.954Z,89.84
2019-05-28T01:19:19.898Z,89.75
2019-05-28T01:20:19.891Z,89.75
2019-05-28T01:21:19.880Z,89.75
2019-05-28T01:22:19.865Z,89.43
2019-05-28T01:23:19.852Z,89.54
2019-05-28T01:24:19.861Z,89.75
2019-05-28T01:25:19.832Z,89.75
2019-05-28T01:26:19.825Z,89.84
2019-05-28T01:27:19.811Z,89.64
2019-05-28T01:28:19.807Z,89.75
2019-05-28T01:29:19.786Z,89.54
2019-05-28T01:30:19.781Z,89.64
2019-05-28T01:31:19.773Z,89.54
2019-05-28T01:32:19.768Z,90.56
2019-05-28T01:33:19.744Z,90.56
2019-05-28T01:34:19.738Z,91.38
2019-05-28T01:35:19.731Z,90.97
2019-05-28T01:36:19.718Z,91.28
2019-05-28T01:37:19.711Z,90.87
2019-05-28T01:38:19.686Z,91.18
2019-05-28T01:39:19.678Z,91.59
2019-05-28T01:40:23.034Z,91.59
2019-05-28T01:41:19.658Z,91.38
2019-05-28T01:42:19.650Z,91.18
2019-05-28T01:43:31.398Z,91.38
2019-05-28T01:44:19.622Z,91.90
2019-05-28T01:45:19.615Z,91.49
2019-05-28T01:46:19.668Z,91.80
2019-05-28T01:47:19.593Z,91.80
2019-05-28T01:48:19.580Z,91.90
2019-05-28T01:49:19.575Z,91.80
2019-05-28T01:50:19.560Z,92.00
2019-05-28T01:51:19.547Z,92.00
2019-05-28T01:52:19.627Z,92.72
2019-05-28T01:53:19.533Z,92.72
2019-05-28T01:54:19.514Z,92.93
2019-05-28T01:55:19.500Z,92.72
2019-05-28T01:56:19.491Z,92.61
2019-05-28T01:57:19.488Z,92.31
2019-05-28T01:58:19.571Z,91.90
2019-05-28T01:59:19.465Z,91.18
2019-05-28T02:00:19.452Z,91.69
2019-05-28T02:01:19.435Z,91.80
2019-05-28T02:02:19.432Z,91.90
2019-05-28T02:03:19.410Z,91.90
2019-05-28T02:04:19.419Z,92.31
2019-05-28T02:05:19.396Z,92.61
2019-05-28T02:06:19.380Z,92.72
2019-05-28T02:07:19.370Z,92.93
2019-05-28T02:08:19.365Z,92.51
2019-05-28T02:09:19.365Z,92.51
2019-05-28T02:10:19.336Z,92.72
2019-05-28T02:11:19.324Z,92.72
2019-05-28T02:12:19.311Z,92.21
2019-05-28T02:13:19.299Z,92.10
2019-05-28T02:14:30.916Z,92.72
2019-05-28T02:15:19.291Z,92.93
2019-05-28T02:16:19.271Z,93.23
2019-05-28T02:17:19.258Z,92.41
2019-05-28T02:18:19.239Z,92.93
2019-05-28T02:19:19.282Z,92.00
2019-05-28T02:20:19.228Z,92.00
2019-05-28T02:21:19.215Z,92.00
2019-05-28T02:22:19.200Z,91.80
2019-05-28T02:23:19.197Z,92.51
2019-05-28T02:24:19.185Z,92.82
2019-05-28T02:25:19.170Z,92.41
2019-05-28T02:26:19.260Z,93.64
2019-05-28T02:35:19.073Z,94.10
2019-05-28T02:45:30.185Z,94.10
2019-05-28T03:03:18.747Z,95.32
2019-05-28T03:06:18.705Z,95.94
2019-05-28T03:16:30.965Z,95.79
2019-05-28T03:27:18.466Z,96.00
2019-05-28T03:28:18.457Z,95.28
2019-05-28T03:29:18.452Z,96.00
2019-05-28T03:30:18.439Z,95.90
2019-05-28T03:31:18.430Z,96.00
2019-05-28T03:32:18.424Z,95.54
2019-05-28T03:33:18.449Z,96.20
2019-05-28T03:34:18.398Z,95.75
2019-05-28T03:35:18.415Z,95.44
2019-05-28T03:36:18.367Z,94.93
2019-05-28T03:37:18.351Z,95.34
2019-05-28T03:39:18.334Z,95.14
2019-05-28T03:41:18.315Z,95.86
2019-05-28T03:42:18.297Z,95.95
2019-05-28T03:43:18.285Z,95.75
2019-05-28T03:44:18.282Z,95.65
2019-05-28T03:45:18.305Z,95.65
2019-05-28T03:46:18.259Z,96.06
2019-05-28T03:47:30.511Z,95.54
2019-05-28T03:49:18.214Z,96.32
2019-05-28T03:50:18.212Z,96.06
2019-05-28T03:51:18.202Z,96.01
2019-05-28T03:52:18.205Z,96.73
2019-05-28T03:53:18.182Z,96.42
2019-05-28T03:54:18.167Z,95.70
2019-05-28T03:55:18.196Z,95.70
2019-05-28T03:56:18.147Z,96.01
2019-05-28T03:57:18.149Z,95.81
2019-05-28T03:58:18.130Z,95.91
2019-05-28T03:59:18.101Z,95.70
2019-05-28T04:00:18.104Z,96.07
2019-05-28T04:01:18.083Z,95.05
2019-05-28T04:02:23.416Z,95.36
2019-05-28T04:04:18.048Z,94.95
2019-05-28T04:05:18.036Z,94.74
2019-05-28T04:06:18.027Z,95.05
2019-05-28T04:07:18.026Z,94.80
2019-05-28T04:08:18.007Z,94.90
2019-05-28T04:10:17.992Z,94.59
2019-05-28T04:11:17.969Z,94.80
2019-05-28T04:13:17.949Z,94.90
2019-05-28T04:14:17.952Z,94.90
2019-05-28T04:15:17.939Z,94.90
2019-05-28T04:16:17.919Z,94.70
2019-05-28T04:17:17.995Z,94.85
2019-05-28T04:18:31.041Z,94.55
2019-05-28T04:20:17.873Z,94.80
2019-05-28T04:21:17.860Z,94.96
2019-05-28T04:22:17.866Z,94.55
2019-05-28T04:23:17.857Z,94.45
2019-05-28T04:24:17.846Z,94.34
2019-05-28T04:25:17.823Z,93.69
2019-05-28T04:26:17.807Z,93.89
2019-05-28T04:27:17.795Z,93.99
2019-05-28T04:28:17.799Z,93.99
2019-05-28T04:29:17.818Z,93.89
2019-05-28T04:30:17.763Z,94.06
2019-05-28T04:31:17.760Z,94.30
2019-05-28T04:32:17.739Z,93.74
2019-05-28T04:33:17.732Z,93.99
2019-05-28T04:34:17.727Z,93.44
2019-05-28T04:35:17.714Z,93.33
2019-05-28T04:36:17.705Z,93.65
2019-05-28T04:37:17.701Z,93.65
2019-05-28T04:38:17.675Z,93.33
2019-05-28T04:39:17.667Z,93.54
2019-05-28T04:41:17.650Z,93.95
2019-05-28T04:42:17.635Z,93.44
2019-05-28T04:43:17.639Z,93.19
2019-05-28T04:45:17.604Z,93.50
2019-05-28T04:46:17.612Z,93.60
2019-05-28T04:47:17.584Z,93.50
2019-05-28T04:48:17.567Z,92.88
2019-05-28T04:49:30.483Z,92.78
2019-05-28T04:51:17.566Z,93.40
2019-05-28T04:52:17.531Z,93.29
2019-05-28T04:53:17.512Z,92.88
2019-05-28T04:54:17.508Z,92.94
2019-05-28T04:55:17.492Z,92.33
2019-05-28T04:56:17.501Z,92.29
2019-05-28T04:57:17.494Z,91.98
2019-05-28T04:58:17.470Z,92.39
2019-05-28T04:59:17.458Z,91.74
2019-05-28T05:00:17.439Z,90.81
2019-05-28T05:01:17.428Z,91.22
2019-05-28T05:02:17.431Z,91.43
2019-05-28T05:03:17.414Z,90.81
2019-05-28T05:04:17.393Z,90.71
2019-05-28T05:05:17.388Z,90.77
2019-05-28T05:06:17.377Z,90.67
2019-05-28T05:07:17.358Z,91.08
2019-05-28T05:08:17.359Z,90.47
2019-05-28T05:09:17.343Z,90.77
2019-05-28T05:10:19.239Z,90.88
2019-05-28T05:12:17.304Z,90.88
2019-05-28T05:13:17.334Z,90.98
2019-05-28T05:14:17.304Z,90.67
2019-05-28T05:15:17.273Z,90.47
2019-05-28T05:17:17.643Z,90.57
2019-05-28T05:18:17.539Z,89.96
2019-05-28T05:19:17.373Z,90.57
2019-05-28T05:20:30.519Z,90.67
2019-05-28T05:22:17.228Z,89.34
2019-05-28T05:23:17.190Z,89.40
2019-05-28T05:24:17.215Z,89.34
2019-05-28T05:25:17.177Z,89.51
2019-05-28T05:26:17.231Z,90.53
2019-05-28T05:27:17.238Z,90.32
2019-05-28T05:28:17.122Z,90.94
2019-05-28T05:29:17.111Z,90.06
2019-05-28T05:30:17.113Z,91.08
2019-05-28T05:31:17.099Z,90.88
2019-05-28T05:32:17.084Z,91.08
2019-05-28T05:33:20.397Z,90.77
2019-05-28T05:34:17.057Z,91.83
2019-05-28T05:35:17.293Z,92.14
2019-05-28T05:36:17.147Z,92.41
2019-05-28T05:37:17.028Z,92.04
2019-05-28T05:38:17.018Z,92.45
2019-05-28T05:39:17.003Z,92.24
2019-05-28T05:40:17.034Z,92.24
2019-05-28T05:41:16.979Z,92.65
2019-05-28T05:43:16.965Z,91.74
2019-05-28T05:44:16.942Z,92.50
2019-05-28T05:45:16.932Z,92.30
2019-05-28T05:46:16.960Z,91.79
2019-05-28T05:47:16.914Z,91.24
2019-05-28T05:48:17.033Z,91.39
2019-05-28T05:49:16.896Z,91.24
2019-05-28T05:50:16.883Z,91.44
2019-05-28T05:51:30.639Z,91.55
2019-05-28T05:53:16.925Z,90.73
2019-05-28T05:54:16.844Z,90.69
2019-05-28T05:55:16.822Z,90.59
2019-05-28T05:56:16.816Z,91.40
2019-05-28T05:57:16.874Z,90.69
2019-05-28T05:58:16.916Z,89.63
2019-05-28T05:59:16.780Z,90.75
2019-05-28T06:00:16.855Z,90.24
2019-05-28T06:01:16.810Z,90.75
2019-05-28T06:02:16.837Z,90.64
2019-05-28T06:03:16.747Z,90.85
2019-05-28T06:04:16.732Z,89.16
2019-05-28T06:05:16.718Z,89.26
2019-05-28T06:06:16.705Z,89.01
2019-05-28T06:07:16.730Z,89.42
2019-05-28T06:08:16.718Z,89.22
2019-05-28T06:09:16.736Z,89.32
2019-05-28T06:10:16.658Z,89.53
2019-05-28T06:11:16.656Z,89.73
2019-05-28T06:12:16.637Z,90.24
2019-05-28T06:14:17.121Z,89.12
2019-05-28T06:15:16.626Z,88.81
2019-05-28T06:16:16.593Z,89.22
2019-05-28T06:17:16.599Z,88.87
2019-05-28T06:18:16.579Z,88.46
2019-05-28T06:19:16.574Z,88.20
2019-05-28T06:21:18.947Z,88.87
2019-05-28T06:22:29.525Z,88.06
2019-05-28T06:24:16.503Z,89.12
2019-05-28T06:25:16.555Z,90.24
2019-05-28T06:26:16.495Z,90.24
2019-05-28T06:27:19.344Z,90.20
2019-05-28T06:28:16.504Z,89.38
2019-05-28T06:29:16.477Z,88.98
2019-05-28T06:30:16.449Z,88.77
2019-05-28T06:31:16.423Z,88.46
2019-05-28T06:32:16.568Z,88.57
2019-05-28T06:33:16.428Z,88.02
2019-05-28T06:34:16.422Z,87.71
2019-05-28T06:35:16.375Z,87.61
2019-05-28T06:36:16.387Z,88.22
2019-05-28T06:37:16.359Z,87.16
2019-05-28T06:38:16.345Z,87.00
2019-05-28T06:39:16.355Z,87.61
2019-05-28T06:40:16.333Z,87.10
2019-05-28T06:42:16.304Z,88.51
2019-05-28T06:43:16.289Z,88.98
2019-05-28T06:45:16.270Z,89.12
2019-05-28T06:46:16.266Z,90.30
2019-05-28T06:47:16.248Z,89.28
2019-05-28T06:48:16.233Z,88.92
2019-05-28T06:49:16.228Z,89.12
2019-05-28T06:50:16.232Z,88.51
2019-05-28T06:51:16.206Z,88.96
2019-05-28T06:53:28.431Z,89.00
2019-05-28T06:55:16.214Z,89.30
2019-05-28T06:56:16.436Z,89.61
2019-05-28T06:57:22.730Z,89.57
2019-05-28T06:59:16.113Z,90.63
2019-05-28T07:00:16.185Z,91.03
2019-05-28T07:01:16.138Z,90.53
2019-05-28T07:02:16.114Z,90.12
2019-05-28T07:03:21.559Z,90.32
2019-05-28T07:05:16.063Z,90.73
2019-05-28T07:06:16.055Z,90.73
2019-05-28T07:07:16.248Z,90.48
2019-05-28T07:08:17.990Z,89.22
2019-05-28T07:10:26.803Z,89.53
2019-05-28T07:11:26.791Z,88.46
2019-05-28T07:12:26.796Z,87.04
2019-05-28T07:13:26.766Z,87.04
2019-05-28T07:15:26.740Z,87.04
2019-05-28T07:16:26.748Z,86.16
2019-05-28T07:17:26.745Z,87.14
2019-05-28T07:18:26.761Z,87.45
2019-05-28T07:19:26.697Z,87.04
2019-05-28T07:20:26.682Z,87.35
2019-05-28T07:21:26.681Z,87.24
2019-05-28T07:22:26.664Z,86.53
2019-05-28T07:24:26.668Z,86.94
2019-05-28T07:25:27.045Z,86.83
2019-05-28T07:26:26.627Z,87.14
2019-05-28T07:27:26.606Z,87.08
2019-05-28T07:28:26.634Z,87.59
2019-05-28T07:29:26.672Z,86.94
2019-05-28T07:30:26.581Z,86.98
2019-05-28T07:31:26.586Z,86.63
2019-05-28T07:32:26.597Z,87.45
2019-05-28T07:33:26.612Z,87.24
2019-05-28T07:34:30.653Z,86.94
2019-05-28T07:35:26.518Z,86.43
2019-05-28T07:36:26.504Z,85.82
2019-05-28T07:37:26.606Z,85.61
2019-05-28T07:38:26.481Z,85.61
2019-05-28T07:39:26.491Z,85.88
2019-05-28T07:40:33.552Z,84.62
2019-05-28T07:41:26.456Z,83.70
2019-05-28T07:42:32.668Z,83.81
2019-05-28T07:43:27.489Z,83.91
2019-05-28T07:44:26.497Z,83.50
2019-05-28T07:45:26.453Z,83.91
2019-05-28T07:46:26.399Z,84.82
2019-05-28T07:47:26.387Z,84.82
2019-05-28T07:48:26.436Z,84.92
2019-05-28T07:49:26.449Z,84.42
2019-05-28T07:50:26.431Z,84.21
2019-05-28T07:51:26.351Z,83.20
2019-05-28T07:52:26.332Z,83.50
2019-05-28T07:53:39.382Z,83.20
2019-05-28T07:54:27.360Z,82.99
2019-05-28T07:55:26.450Z,81.37
2019-05-28T07:56:26.281Z,81.67
2019-05-28T07:57:26.379Z,82.59
2019-05-28T07:58:26.314Z,81.77
2019-05-28T07:59:26.256Z,81.98
2019-05-28T08:00:26.252Z,82.12
2019-05-28T08:01:26.248Z,81.26
2019-05-28T08:02:26.218Z,80.15
2019-05-28T08:03:26.204Z,80.15
2019-05-28T08:04:26.205Z,80.45
2019-05-28T08:05:26.217Z,80.35
2019-05-28T08:06:26.288Z,80.04
2019-05-28T08:07:26.171Z,80.35
2019-05-28T08:08:26.154Z,79.80
2019-05-28T08:10:29.328Z,80.04
2019-05-28T08:11:40.548Z,79.94
2019-05-28T08:12:26.120Z,79.84
2019-05-28T08:13:39.585Z,79.47
2019-05-28T08:14:27.089Z,79.94
2019-05-28T08:15:26.088Z,80.24
2019-05-28T08:16:26.069Z,78.89
2019-05-28T08:17:26.062Z,78.68
2019-05-28T08:18:26.074Z,79.39
2019-05-28T08:19:26.109Z,80.00
2019-05-28T08:20:26.027Z,78.75
2019-05-28T08:21:26.034Z,77.73
2019-05-28T08:23:25.986Z,77.63
2019-05-28T08:24:25.993Z,78.10
2019-05-28T08:25:45.473Z,77.15
2019-05-28T08:26:26.952Z,76.31
2019-05-28T08:27:25.947Z,75.12
2019-05-28T08:28:25.972Z,75.87
2019-05-28T08:30:25.908Z,75.83
2019-05-28T08:31:26.268Z,76.07
2019-05-28T08:32:26.053Z,75.29
2019-05-28T08:33:25.885Z,75.40
2019-05-28T08:34:25.883Z,75.33
2019-05-28T08:35:25.898Z,76.59
2019-05-28T08:36:25.844Z,76.99
2019-05-28T08:37:25.853Z,77.29
2019-05-28T08:38:25.835Z,76.79
2019-05-28T08:39:25.836Z,77.29
2019-05-28T08:41:25.830Z,78.82
2019-05-28T08:42:38.609Z,78.62
2019-05-28T08:43:25.926Z,78.55
2019-05-28T08:44:25.831Z,78.92
2019-05-28T08:45:25.751Z,79.27
2019-05-28T08:46:25.735Z,79.06
2019-05-28T08:47:25.723Z,79.37
2019-05-28T08:48:25.741Z,79.41
2019-05-28T08:49:25.746Z,80.52
2019-05-28T08:50:34.483Z,80.11
2019-05-28T08:51:26.686Z,80.32
2019-05-28T08:52:25.665Z,80.52
2019-05-28T08:54:25.654Z,80.97
2019-05-28T08:55:25.667Z,80.73
2019-05-28T08:56:25.631Z,80.83
2019-05-28T08:57:25.618Z,80.52
2019-05-28T08:58:25.603Z,80.66
2019-05-28T09:00:26.167Z,80.52
2019-05-28T09:13:36.363Z,80.11
2019-05-28T09:15:25.412Z,80.46
2019-05-28T09:16:25.408Z,80.46
2019-05-28T09:17:25.394Z,81.17
2019-05-28T09:18:25.382Z,81.88
2019-05-28T09:19:25.372Z,81.01
2019-05-28T09:20:25.361Z,81.93
2019-05-28T09:21:25.377Z,81.45
2019-05-28T09:22:26.480Z,81.25
2019-05-28T09:23:25.418Z,82.51
2019-05-28T09:24:27.783Z,83.09
2019-05-28T09:25:25.305Z,83.59
2019-05-28T09:26:25.343Z,83.18
2019-05-28T09:27:25.652Z,84.25
2019-05-28T09:28:30.211Z,84.20
2019-05-28T09:29:26.255Z,84.66
2019-05-28T09:30:25.264Z,84.00
2019-05-28T09:31:25.241Z,84.72
2019-05-28T09:32:25.250Z,85.02
2019-05-28T09:33:25.219Z,84.61
2019-05-28T09:34:25.216Z,84.72
2019-05-28T09:35:41.189Z,84.51
2019-05-28T09:36:26.185Z,84.51
2019-05-28T09:37:25.175Z,84.98
2019-05-28T09:38:25.208Z,84.03
2019-05-28T09:39:25.177Z,85.05
2019-05-28T09:40:25.254Z,83.98
2019-05-28T09:41:25.131Z,83.62
2019-05-28T09:42:25.115Z,84.03
2019-05-28T09:43:25.106Z,83.58
2019-05-28T09:44:37.672Z,83.92
2019-05-28T09:45:25.106Z,84.03
2019-05-28T09:46:26.444Z,83.92
2019-05-28T09:47:25.319Z,85.25
2019-05-28T09:48:25.162Z,84.43
2019-05-28T09:49:25.043Z,84.03
2019-05-28T09:50:30.467Z,83.31
2019-05-28T09:51:26.138Z,83.31
2019-05-28T09:52:25.267Z,83.21
2019-05-28T09:53:36.476Z,83.76
2019-05-28T09:54:25.178Z,83.86
2019-05-28T09:55:25.264Z,84.06
2019-05-28T09:56:25.274Z,84.03
2019-05-28T09:57:25.007Z,82.90
2019-05-28T09:58:24.974Z,82.60
2019-05-28T09:59:40.360Z,82.40
2019-05-28T10:00:25.954Z,83.21
2019-05-28T10:01:24.908Z,82.74
2019-05-28T10:02:25.180Z,83.56
2019-05-28T10:03:24.905Z,84.03
2019-05-28T10:04:44.073Z,83.21
2019-05-28T10:05:26.673Z,82.80
2019-05-28T10:06:36.838Z,83.31
2019-05-28T10:07:26.000Z,83.21
2019-05-28T10:08:24.941Z,81.85
2019-05-28T10:09:24.878Z,82.80
2019-05-28T10:10:24.886Z,82.50
2019-05-28T10:11:26.420Z,82.70
2019-05-28T10:12:24.976Z,82.46
2019-05-28T10:14:24.831Z,81.24
2019-05-28T10:15:37.273Z,81.79
2019-05-28T10:16:24.745Z,81.07
2019-05-28T10:17:24.732Z,81.34
2019-05-28T10:18:24.713Z,81.85
2019-05-28T10:19:24.726Z,81.79
2019-05-28T10:20:24.709Z,81.38
2019-05-28T10:21:24.689Z,82.19
2019-05-28T10:22:24.688Z,82.19
2019-05-28T10:23:24.669Z,82.09
2019-05-28T10:24:24.676Z,81.54
2019-05-28T10:25:24.746Z,81.04
2019-05-28T10:27:24.670Z,80.73
2019-05-28T10:28:24.608Z,80.90
2019-05-28T10:29:24.598Z,80.29
2019-05-28T10:30:24.586Z,79.98
2019-05-28T10:31:24.579Z,79.37
2019-05-28T10:32:24.593Z,78.92
2019-05-28T10:33:24.558Z,78.58
2019-05-28T10:34:24.538Z,77.63
2019-05-28T10:35:24.529Z,78.91
2019-05-28T10:36:34.975Z,76.64
2019-05-28T10:37:25.519Z,77.05
2019-05-28T10:38:24.510Z,75.39
2019-05-28T10:39:24.492Z,75.39
2019-05-28T10:40:24.474Z,74.38
2019-05-28T10:41:24.468Z,74.58
2019-05-28T10:42:24.462Z,73.63
2019-05-28T10:43:24.447Z,74.24
2019-05-28T10:45:24.415Z,73.43
2019-05-28T10:46:35.654Z,73.16
2019-05-28T10:47:24.468Z,73.22
2019-05-28T10:48:24.387Z,72.78
2019-05-28T10:49:24.403Z,72.48
2019-05-28T10:50:24.361Z,72.34
2019-05-28T10:51:24.435Z,71.00
2019-05-28T10:52:24.378Z,71.30
2019-05-28T10:53:24.367Z,70.56
2019-05-28T10:54:24.330Z,69.04
2019-05-28T10:55:24.313Z,67.29
2019-05-28T10:56:24.320Z,67.59
2019-05-28T10:58:24.334Z,69.04
2019-05-28T10:59:24.262Z,67.79
2019-05-28T11:00:24.251Z,67.46
2019-05-28T11:01:24.240Z,67.05
2019-05-28T11:02:24.238Z,67.76
2019-05-28T11:03:24.222Z,67.12
2019-05-28T11:04:24.252Z,66.24
2019-05-28T11:05:24.205Z,66.35
2019-05-28T11:06:24.213Z,65.77
2019-05-28T11:07:24.178Z,66.10
2019-05-28T11:08:24.160Z,67.55
2019-05-28T11:09:24.155Z,67.14
2019-05-28T11:10:25.037Z,67.85
2019-05-28T11:11:24.135Z,67.01
2019-05-28T11:12:24.133Z,67.11
2019-05-28T11:14:24.096Z,67.08
2019-05-28T11:16:24.081Z,66.27
2019-05-28T11:17:37.166Z,66.14
2019-05-28T11:18:24.050Z,65.81
2019-05-28T11:19:24.038Z,64.67
2019-05-28T11:20:24.065Z,64.39
2019-05-28T11:21:24.016Z,65.10
2019-05-28T11:22:24.012Z,64.97
2019-05-28T11:23:24.005Z,64.79
2019-05-28T11:24:23.986Z,64.46
2019-05-28T11:25:23.973Z,64.19
2019-05-28T11:26:23.976Z,63.89
2019-05-28T11:27:24.313Z,63.68
2019-05-28T11:29:23.928Z,63.45
2019-05-28T11:30:23.916Z,63.15
2019-05-28T11:31:23.933Z,63.05
2019-05-28T11:32:23.895Z,62.44
2019-05-28T11:33:23.893Z,63.73
2019-05-28T11:34:23.893Z,62.31
2019-05-28T11:35:23.866Z,62.41
2019-05-28T11:36:23.853Z,62.38
2019-05-28T11:37:23.856Z,61.95
2019-05-28T11:38:23.832Z,60.94
2019-05-28T11:39:23.825Z,60.44
2019-05-28T11:40:23.811Z,61.14
2019-05-28T11:41:40.576Z,60.64
2019-05-28T11:42:24.793Z,61.17
2019-05-28T11:43:23.792Z,61.37
2019-05-28T11:45:23.761Z,61.07
2019-05-28T11:47:23.746Z,60.84
2019-05-28T11:48:36.285Z,59.96
2019-05-28T11:49:23.711Z,60.13
2019-05-28T11:50:23.709Z,60.94
2019-05-28T11:51:23.695Z,60.36
2019-05-28T11:52:23.678Z,60.26
2019-05-28T11:53:24.243Z,60.19
2019-05-28T11:54:23.673Z,60.60
2019-05-28T11:55:23.643Z,60.66
2019-05-28T11:56:23.637Z,60.57
2019-05-28T11:57:23.627Z,60.69
2019-05-28T11:58:23.725Z,60.93
2019-05-28T12:00:23.588Z,60.60
2019-05-28T12:01:34.558Z,60.46
2019-05-28T12:02:24.577Z,58.47
2019-05-28T12:03:23.563Z,59.48
2019-05-28T12:04:23.588Z,58.07
2019-05-28T12:05:23.536Z,59.11
2019-05-28T12:06:23.522Z,59.51
2019-05-28T12:07:26.450Z,58.70
2019-05-28T12:08:23.507Z,59.28
2019-05-28T12:09:23.490Z,59.69
2019-05-28T12:10:23.520Z,58.34
2019-05-28T12:11:23.482Z,58.62
2019-05-28T12:12:23.463Z,57.51
2019-05-28T12:13:23.452Z,57.25
2019-05-28T12:14:23.435Z,56.85
2019-05-28T12:15:23.425Z,56.32
2019-05-28T12:19:34.926Z,55.62
2019-05-28T12:44:23.125Z,58.01
2019-05-28T12:46:23.084Z,57.81
2019-05-28T12:50:35.599Z,57.48
2019-05-28T12:52:23.023Z,58.72
2019-05-28T12:53:23.028Z,58.39
2019-05-28T12:54:22.999Z,58.29
2019-05-28T12:55:22.989Z,57.58
2019-05-28T12:56:22.975Z,57.78
2019-05-28T12:57:22.968Z,57.56
2019-05-28T12:58:40.764Z,57.56
2019-05-28T12:59:23.951Z,56.35
2019-05-28T13:00:22.946Z,57.05
2019-05-28T13:01:22.937Z,55.04
2019-05-28T13:02:22.916Z,55.34
2019-05-28T13:03:22.912Z,54.94
2019-05-28T13:04:22.899Z,54.71
2019-05-28T13:05:22.897Z,54.58
2019-05-28T13:06:22.869Z,54.46
2019-05-28T13:07:22.866Z,53.95
2019-05-28T13:08:22.863Z,53.98
2019-05-28T13:09:22.888Z,54.18
2019-05-28T13:10:22.829Z,54.99
2019-05-28T13:11:22.840Z,54.68
2019-05-28T13:12:22.798Z,54.38
2019-05-28T13:13:22.791Z,54.28
2019-05-28T13:14:22.782Z,53.40
2019-05-28T13:15:22.810Z,54.33
2019-05-28T13:16:22.761Z,55.04
2019-05-28T13:17:22.752Z,55.06
2019-05-28T13:18:22.753Z,55.26
2019-05-28T13:19:30.939Z,55.74
2019-05-28T13:20:22.769Z,55.74
2019-05-28T13:21:22.769Z,55.41
2019-05-28T13:22:22.702Z,55.34
2019-05-28T13:23:22.687Z,55.31
2019-05-28T13:24:22.676Z,55.21
2019-05-28T13:43:22.492Z,55.41
2019-05-28T13:44:22.464Z,55.71
2019-05-28T13:45:22.445Z,56.82
2019-05-28T13:46:22.436Z,54.68
2019-05-28T13:47:32.989Z,53.98
2019-05-28T13:48:23.413Z,54.48
2019-05-28T13:49:22.469Z,54.53
2019-05-28T13:50:35.153Z,55.11
2019-05-28T13:51:22.373Z,54.71
2019-05-28T13:52:22.377Z,55.01
2019-05-28T13:53:22.389Z,55.11
2019-05-28T13:54:22.342Z,55.51
2019-05-28T13:55:22.339Z,55.62
2019-05-28T13:56:22.321Z,54.91
2019-05-28T13:57:22.362Z,54.73
2019-05-28T13:58:22.354Z,55.01
2019-05-28T13:59:22.290Z,55.64
2019-05-28T14:00:22.290Z,55.71
2019-05-28T14:01:25.570Z,56.24
2019-05-28T14:02:22.259Z,56.04
2019-05-28T14:03:22.269Z,56.55
2019-05-28T14:04:22.250Z,56.45
2019-05-28T14:05:22.236Z,56.15
2019-05-28T14:06:22.219Z,57.05
2019-05-28T14:07:22.209Z,57.15
2019-05-28T14:08:22.200Z,57.25
2019-05-28T14:09:22.194Z,57.25
2019-05-28T14:10:22.173Z,57.03
2019-05-28T14:11:22.159Z,57.15
2019-05-28T14:12:22.159Z,56.65
2019-05-28T14:13:22.140Z,57.05
2019-05-28T14:14:22.170Z,57.45
2019-05-28T14:15:22.117Z,57.45
2019-05-28T14:16:22.109Z,56.48
2019-05-28T14:17:22.104Z,57.08
2019-05-28T14:18:22.086Z,57.48
2019-05-28T14:19:22.078Z,57.68
2019-05-28T14:20:22.109Z,58.09
2019-05-28T14:21:34.195Z,57.89
2019-05-28T14:22:33.643Z,58.29
2019-05-28T14:23:23.032Z,57.58
2019-05-28T14:24:22.023Z,57.25
2019-05-28T14:25:22.018Z,57.18
2019-05-28T14:26:22.025Z,56.98
2019-05-28T14:27:21.983Z,57.21
2019-05-28T14:28:21.981Z,57.48
2019-05-28T14:29:21.968Z,57.21
2019-05-28T14:30:21.973Z,57.38
2019-05-28T14:31:21.941Z,57.78
2019-05-28T14:32:21.941Z,58.19
2019-05-28T14:33:21.924Z,57.78
2019-05-28T14:34:21.922Z,57.45
2019-05-28T14:35:21.940Z,57.89
2019-05-28T14:36:21.887Z,58.59
2019-05-28T14:37:21.876Z,58.49
2019-05-28T14:38:21.868Z,58.89
2019-05-28T14:39:21.860Z,59.09
2019-05-28T14:40:24.777Z,58.36
2019-05-28T14:41:21.868Z,59.09
2019-05-28T14:42:21.823Z,58.69
2019-05-28T14:43:21.809Z,58.59
2019-05-28T14:44:21.800Z,60.21
2019-05-28T14:45:21.787Z,59.37
2019-05-28T14:46:21.820Z,59.17
2019-05-28T14:47:21.771Z,58.47
2019-05-28T14:48:21.764Z,58.36
2019-05-28T14:49:21.767Z,58.26
2019-05-28T14:50:21.742Z,57.96
2019-05-28T14:51:21.845Z,57.98
2019-05-28T14:52:34.454Z,58.80
2019-05-28T14:53:21.706Z,59.90
2019-05-28T14:54:21.745Z,60.00
2019-05-28T14:55:21.686Z,59.73
2019-05-28T14:56:21.682Z,59.53
2019-05-28T14:57:21.664Z,59.83
2019-05-28T14:58:21.698Z,59.25
2019-05-28T14:59:21.647Z,59.78
2019-05-28T15:00:21.624Z,59.58
2019-05-28T15:01:21.621Z,59.58
2019-05-28T15:02:21.730Z,59.99
2019-05-28T15:03:21.600Z,59.78
2019-05-28T15:04:21.631Z,59.69
2019-05-28T15:05:21.584Z,59.58
2019-05-28T15:06:21.563Z,59.38
2019-05-28T15:07:21.552Z,59.78
2019-05-28T15:08:21.585Z,59.38
2019-05-28T15:09:21.842Z,59.58
2019-05-28T15:10:21.530Z,59.76
2019-05-28T15:11:21.507Z,60.26
2019-05-28T15:12:21.498Z,60.29
2019-05-28T15:13:21.494Z,59.78
2019-05-28T15:14:21.499Z,59.89
2019-05-28T15:15:35.092Z,59.86
2019-05-28T15:16:22.462Z,59.18
2019-05-28T15:17:21.458Z,60.36
2019-05-28T15:18:21.449Z,59.86
2019-05-28T15:19:21.433Z,59.56
2019-05-28T15:20:21.410Z,59.56
2019-05-28T15:21:21.405Z,60.36
2019-05-28T15:22:21.388Z,60.49
2019-05-28T15:23:34.513Z,60.19
2019-05-28T15:24:21.406Z,61.03
2019-05-28T15:25:21.374Z,60.93
2019-05-28T15:26:21.346Z,61.10
2019-05-28T15:27:21.330Z,61.10
2019-05-28T15:28:21.321Z,61.10
2019-05-28T15:29:21.313Z,61.10
2019-05-28T15:30:21.311Z,61.20
2019-05-28T15:31:21.285Z,61.20
2019-05-28T15:32:21.271Z,61.10
2019-05-28T15:33:21.266Z,61.00
2019-05-28T15:34:21.276Z,61.10